Time;durP1;ratioP1;P1;durP2;ratioP2;P2;SDS_P1;SDS_P2;PMS_P1;PMS_P2;Temp;Humidity;BMP_temperature;BMP_pressure;BME280_temperature;BME280_humidity;BME280_pressure;Samples;Min_cycle;Max_cycle;Signal;HPM_P1;HPM_P2
2023/08/08 00:01:50;;;;;;;4.28;2.20;;;;;;;14.59;100.00;100426.94;5005396;28;20049;-74
2023/08/08 00:04:18;;;;;;;4.07;2.55;;;;;;;14.60;100.00;100436.63;5042523;28;20053;-74
2023/08/08 00:06:46;;;;;;;5.03;2.20;;;;;;;14.60;100.00;100433.13;5026792;28;20462;-73
2023/08/08 00:09:16;;;;;;;3.15;2.03;;;;;;;14.61;100.00;100422.38;5038964;28;20048;-75
2023/08/08 00:11:47;;;;;;;4.25;2.25;;;;;;;14.62;100.00;100418.75;5047925;28;20041;-73
2023/08/08 00:14:15;;;;;;;3.60;2.15;;;;;;;14.61;100.00;100421.50;5035328;28;20065;-74
2023/08/08 00:16:43;;;;;;;3.90;2.15;;;;;;;14.59;100.00;100408.28;5039622;28;20036;-73
2023/08/08 00:19:10;;;;;;;5.00;2.63;;;;;;;14.55;100.00;100403.22;5035205;28;20061;-75
2023/08/08 00:21:39;;;;;;;3.53;2.20;;;;;;;14.56;100.00;100407.59;5038923;28;20128;-73
2023/08/08 00:24:07;;;;;;;5.10;2.05;;;;;;;14.61;100.00;100422.38;5014847;28;20548;-73
2023/08/08 00:26:38;;;;;;;2.80;2.05;;;;;;;14.61;100.00;100427.69;5037540;28;20053;-74
2023/08/08 00:29:07;;;;;;;5.53;2.43;;;;;;;14.61;100.00;100432.16;5032358;28;20045;-74
2023/08/08 00:31:35;;;;;;;3.35;2.30;;;;;;;14.57;100.00;100419.97;5054569;28;20526;-73
2023/08/08 00:34:05;;;;;;;3.50;2.35;;;;;;;14.59;100.00;100426.06;5055970;28;20041;-74
2023/08/08 00:36:33;;;;;;;3.20;2.20;;;;;;;14.57;100.00;100419.97;5056417;28;20050;-73
2023/08/08 00:39:03;;;;;;;3.20;2.10;;;;;;;14.57;100.00;100414.66;5040127;28;20149;-75
2023/08/08 00:41:31;;;;;;;2.85;2.10;;;;;;;14.62;100.00;100423.22;5049271;28;20053;-73
2023/08/08 00:44:00;;;;;;;3.00;2.13;;;;;;;14.62;100.00;100418.75;5056113;28;20041;-73
2023/08/08 00:46:28;;;;;;;4.78;2.28;;;;;;;14.64;100.00;100418.63;5043282;28;20045;-73
2023/08/08 00:48:59;;;;;;;3.03;2.15;;;;;;;14.68;100.00;100414.81;5042938;28;20087;-73
2023/08/08 00:51:27;;;;;;;4.07;2.10;;;;;;;14.69;100.00;100413.88;5040499;28;20048;-74
2023/08/08 00:53:56;;;;;;;3.25;2.40;;;;;;;14.73;100.00;100420.72;5036050;28;20716;-74
2023/08/08 00:56:27;;;;;;;2.78;1.88;;;;;;;14.74;100.00;100417.97;5037071;28;20457;-73
2023/08/08 00:58:55;;;;;;;;;;;;;;;14.76;100.00;100409.88;5036162;28;20050;-73
2023/08/08 01:01:26;;;;;;;4.50;1.90;;;;;;;14.68;100.00;100390.81;5035506;28;19927;-73
2023/08/08 01:03:54;;;;;;;3.00;2.05;;;;;;;14.74;100.00;100396.63;5014861;28;20045;-73
2023/08/08 01:06:30;;;;;;;2.33;1.90;;;;;;;14.72;100.00;100397.69;5021142;28;20048;-73
2023/08/08 01:09:08;;;;;;;3.63;2.38;;;;;;;14.61;100.00;100386.88;5035533;28;20611;-74
2023/08/08 01:11:37;;;;;;;4.72;2.42;;;;;;;14.57;100.00;100393.34;5048761;28;20045;-72
2023/08/08 01:14:09;;;;;;;4.38;2.22;;;;;;;14.44;100.00;100389.75;5044718;28;20176;-74
2023/08/08 01:16:38;;;;;;;3.55;2.03;;;;;;;14.39;100.00;100398.84;5034771;28;20055;-73
2023/08/08 01:19:08;;;;;;;2.95;2.03;;;;;;;14.32;100.00;100394.00;5035330;28;20127;-76
2023/08/08 01:21:40;;;;;;;4.10;2.30;;;;;;;14.25;100.00;100398.84;5035947;28;20029;-73
2023/08/08 01:24:18;;;;;;;7.05;2.10;;;;;;;14.25;100.00;100392.66;5050315;28;20141;-73
2023/08/08 01:26:47;;;;;;;4.93;2.35;;;;;;;14.23;100.00;100400.75;5057064;28;20141;-72
2023/08/08 01:29:15;;;;;;;3.33;2.20;;;;;;;14.20;100.00;100400.91;5038081;28;20067;-73
2023/08/08 01:31:44;;;;;;;2.35;2.00;;;;;;;14.18;100.00;100397.50;5039247;28;20158;-74
2023/08/08 01:34:14;;;;;;;3.25;2.30;;;;;;;14.19;100.00;100404.53;5038620;28;20045;-74
2023/08/08 01:36:49;;;;;;;4.47;2.45;;;;;;;14.20;100.00;100394.75;5044539;28;20504;-73
2023/08/08 01:39:26;;;;;;;5.32;2.50;;;;;;;14.16;100.00;100388.78;5017688;28;20414;-74
2023/08/08 01:41:56;;;;;;;3.58;2.20;;;;;;;14.12;100.00;100387.25;5038606;28;20056;-74
2023/08/08 01:44:25;;;;;;;3.20;2.47;;;;;;;14.00;100.00;100374.69;5044887;28;20456;-72
2023/08/08 01:46:54;;;;;;;7.32;2.50;;;;;;;14.01;100.00;100390.53;5043306;28;20111;-73
2023/08/08 01:49:22;;;;;;;2.90;2.28;;;;;;;13.98;100.00;100389.91;5027288;28;20064;-76
2023/08/08 01:51:52;;;;;;;2.70;2.40;;;;;;;13.93;100.00;100383.97;5037717;28;20041;-72
2023/08/08 01:54:21;;;;;;;3.08;2.53;;;;;;;13.88;100.00;100388.72;5047538;28;20193;-75
2023/08/08 01:56:50;;;;;;;;;;;;;;;13.84;100.00;100387.22;5052328;28;20103;-74
2023/08/08 01:59:19;;;;;;;3.80;2.47;;;;;;;13.77;100.00;100376.06;5038058;28;19932;-74
2023/08/08 02:01:47;;;;;;;4.35;2.45;;;;;;;13.76;100.00;100378.81;5036317;28;20041;-72
2023/08/08 02:04:15;;;;;;;4.57;2.53;;;;;;;13.74;100.00;100386.91;5041255;28;20045;-73
2023/08/08 02:06:44;;;;;;;4.75;2.60;;;;;;;13.70;100.00;100380.91;5029748;28;20073;-72
2023/08/08 02:09:14;;;;;;;3.10;2.25;;;;;;;13.69;100.00;100381.00;5027688;28;20072;-74
2023/08/08 02:11:43;;;;;;;4.68;2.50;;;;;;;13.66;100.00;100371.41;5032089;28;20532;-73
2023/08/08 02:14:11;;;;;;;3.78;2.60;;;;;;;13.73;100.00;100379.84;5024176;28;20509;-73
2023/08/08 02:16:42;;;;;;;4.47;2.67;;;;;;;13.67;100.00;100367.78;5026116;28;20045;-74
2023/08/08 02:19:11;;;;;;;3.35;2.72;;;;;;;13.59;100.00;100372.72;5037016;28;20041;-74
2023/08/08 02:21:40;;;;;;;5.93;2.80;;;;;;;13.51;100.00;100372.31;5038799;28;20547;-73
2023/08/08 02:24:09;;;;;;;5.93;3.00;;;;;;;13.38;100.00;100357.19;5037017;28;20060;-73
2023/08/08 02:26:37;;;;;;;5.32;2.50;;;;;;;13.31;100.00;100365.50;5037349;28;20036;-72
2023/08/08 02:29:12;;;;;;;5.10;3.00;;;;;;;13.34;100.00;100362.69;5033621;28;20029;-72
2023/08/08 02:31:40;;;;;;;5.95;2.90;;;;;;;13.34;100.00;100367.13;5014594;28;20045;-72
2023/08/08 02:34:08;;;;;;;3.88;2.80;;;;;;;13.30;100.00;100371.78;5045122;28;20586;-73
2023/08/08 02:36:36;;;;;;;5.10;2.40;;;;;;;13.26;100.00;100370.22;5007852;28;20034;-72
2023/08/08 02:39:04;;;;;;;5.72;2.50;;;;;;;13.21;100.00;100360.84;5039736;28;20102;-75
2023/08/08 02:41:32;;;;;;;4.18;2.47;;;;;;;13.18;100.00;100361.00;5037664;28;20048;-73
2023/08/08 02:44:01;;;;;;;6.82;2.85;;;;;;;13.20;100.00;100369.75;5034353;28;20441;-73
2023/08/08 02:46:31;;;;;;;4.43;2.55;;;;;;;13.17;100.00;100369.91;5024493;28;20038;-73
2023/08/08 02:49:01;;;;;;;10.05;3.22;;;;;;;13.08;100.00;100349.13;5034110;28;20045;-73
2023/08/08 02:51:30;;;;;;;5.20;2.60;;;;;;;13.09;100.00;100362.34;5034624;28;20037;-73
2023/08/08 02:53:58;;;;;;;4.43;2.95;;;;;;;13.03;100.00;100361.84;5040980;28;20053;-73
2023/08/08 02:56:30;;;;;;;4.30;2.60;;;;;;;13.03;100.00;100364.50;5044434;28;20048;-73
2023/08/08 02:58:58;;;;;;;6.75;3.08;;;;;;;12.99;100.00;100366.50;5035275;28;20165;-73
2023/08/08 03:01:25;;;;;;;6.10;2.90;;;;;;;12.96;100.00;100367.50;5021925;28;20041;-73
2023/08/08 03:03:55;;;;;;;3.08;2.10;;;;;;;12.95;100.00;100371.13;5053458;28;20057;-73
2023/08/08 03:06:26;;;;;;;3.20;2.60;;;;;;;12.91;100.00;100366.06;5040872;28;20057;-73
2023/08/08 03:08:55;;;;;;;2.97;2.67;;;;;;;12.88;100.00;100367.09;5040138;28;20061;-72
2023/08/08 03:11:23;;;;;;;3.33;2.60;;;;;;;12.87;100.00;100367.19;5036765;28;20037;-73
2023/08/08 03:13:51;;;;;;;4.68;2.70;;;;;;;12.90;100.00;100375.00;5061814;28;20049;-73
2023/08/08 03:16:20;;;;;;;3.35;2.47;;;;;;;12.88;100.00;100383.06;5055639;28;20432;-74
2023/08/08 03:18:49;;;;;;;4.05;2.92;;;;;;;12.92;100.00;100378.41;5041320;28;20041;-73
2023/08/08 03:21:18;;;;;;;4.78;2.65;;;;;;;12.99;100.00;100377.13;5039011;28;20410;-74
2023/08/08 03:23:46;;;;;;;4.73;2.90;;;;;;;13.00;100.00;100377.03;5039161;28;20428;-74
2023/08/08 03:26:14;;;;;;;6.03;2.80;;;;;;;12.99;100.00;100371.81;5036206;28;20033;-77
2023/08/08 03:28:50;;;;;;;3.60;2.30;;;;;;;12.90;100.00;100367.88;5038219;28;20041;-74
2023/08/08 03:31:21;;;;;;;6.43;2.50;;;;;;;12.91;100.00;100379.34;5032713;28;20076;-73
2023/08/08 03:33:49;;;;;;;3.08;2.72;;;;;;;12.86;100.00;100371.66;5044397;28;20037;-74
2023/08/08 03:36:20;;;;;;;4.22;2.80;;;;;;;12.79;100.00;100372.94;5036255;28;20501;-72
2023/08/08 03:38:48;;;;;;;3.72;2.63;;;;;;;12.75;100.00;100376.69;5045131;28;20128;-74
2023/08/08 03:41:16;;;;;;;6.22;3.03;;;;;;;12.81;100.00;100379.00;5037564;28;20037;-74
2023/08/08 03:43:44;;;;;;;5.78;3.10;;;;;;;12.82;100.00;100378.06;5054815;28;20041;-71
2023/08/08 03:46:14;;;;;;;4.18;2.65;;;;;;;12.90;100.00;100375.00;5038164;28;20087;-74
2023/08/08 03:48:42;;;;;;;3.65;2.75;;;;;;;12.95;100.00;100375.56;5039827;28;20057;-74
2023/08/08 03:51:10;;;;;;;5.55;2.42;;;;;;;12.97;100.00;100376.34;5034564;28;20694;-73
2023/08/08 03:53:41;;;;;;;6.28;2.65;;;;;;;12.98;100.00;100370.94;5041740;28;20041;-72
2023/08/08 03:56:09;;;;;;;3.60;2.30;;;;;;;13.00;100.00;100371.72;5040536;28;20048;-72
2023/08/08 03:58:40;;;;;;;3.80;2.80;;;;;;;12.95;100.00;100355.16;5042802;28;20038;-72
2023/08/08 04:01:11;;;;;;;5.55;2.70;;;;;;;13.00;100.00;100368.19;5038147;28;20072;-75
2023/08/08 04:03:40;;;;;;;3.38;2.35;;;;;;;13.01;100.00;100361.94;5027083;28;20057;-72
2023/08/08 04:06:08;;;;;;;5.28;2.97;;;;;;;13.04;100.00;100361.78;5025964;28;20072;-72
2023/08/08 04:08:37;;;;;;;5.03;2.75;;;;;;;13.03;100.00;100357.41;5041857;28;20051;-72
2023/08/08 04:11:12;;;;;;;3.95;2.33;;;;;;;13.04;100.00;100361.78;5032136;28;20091;-73
2023/08/08 04:13:40;;;;;;;4.50;2.60;;;;;;;13.00;100.00;100358.44;5044704;28;20044;-73
2023/08/08 04:16:08;;;;;;;3.10;2.75;;;;;;;13.03;100.00;100359.19;5016446;28;20087;-72
2023/08/08 04:18:36;;;;;;;6.78;2.78;;;;;;;13.06;100.00;100362.53;5030901;28;20126;-72
2023/08/08 04:21:06;;;;;;;3.45;2.50;;;;;;;13.07;100.00;100366.88;5032559;28;20041;-73
2023/08/08 04:23:34;;;;;;;5.47;2.15;;;;;;;13.05;100.00;100357.31;5040908;28;20049;-73
2023/08/08 04:26:05;;;;;;;7.05;2.63;;;;;;;13.01;100.00;100361.94;5040341;28;20037;-73
2023/08/08 04:28:35;;;;;;;3.40;2.35;;;;;;;13.02;100.00;100368.13;5041273;28;20045;-73
2023/08/08 04:31:02;;;;;;;4.65;2.40;;;;;;;13.08;100.00;100370.41;5052542;28;20045;-74
2023/08/08 04:33:30;;;;;;;4.82;2.85;;;;;;;13.04;100.00;100372.41;5049645;28;20056;-76
2023/08/08 04:35:59;;;;;;;3.20;2.25;;;;;;;13.04;100.00;100369.75;5058480;28;20053;-74
2023/08/08 04:38:27;;;;;;;3.05;2.22;;;;;;;13.04;100.00;100368.88;5051482;28;20045;-73
2023/08/08 04:40:56;;;;;;;2.95;2.10;;;;;;;13.09;100.00;100374.78;5054444;28;20041;-73
2023/08/08 04:43:24;;;;;;;3.00;2.20;;;;;;;13.12;100.00;100369.28;5036596;28;20045;-72
2023/08/08 04:45:53;;;;;;;4.05;2.10;;;;;;;12.97;100.00;100350.63;5044858;28;20065;-74
2023/08/08 04:48:21;;;;;;;3.70;2.70;;;;;;;13.08;100.00;100365.09;5036264;28;20041;-73
2023/08/08 04:50:50;;;;;;;3.13;2.20;;;;;;;13.07;100.00;100366.03;5032498;28;20155;-73
2023/08/08 04:53:18;;;;;;;4.18;2.60;;;;;;;13.03;100.00;100362.72;5042611;28;20468;-71
2023/08/08 04:55:47;;;;;;;3.78;2.08;;;;;;;13.05;100.00;100368.81;5047263;28;20040;-71
2023/08/08 04:58:15;;;;;;;5.70;2.80;;;;;;;13.05;100.00;100367.94;5044564;28;20040;-74
2023/08/08 05:00:43;;;;;;;2.35;2.15;;;;;;;13.12;100.00;100370.16;5020701;28;20052;-72
2023/08/08 05:03:18;;;;;;;3.45;2.25;;;;;;;13.13;100.00;100368.34;5034470;28;20045;-73
2023/08/08 05:05:46;;;;;;;4.30;2.85;;;;;;;13.14;100.00;100367.41;5036133;28;20575;-72
2023/08/08 05:08:15;;;;;;;5.50;2.47;;;;;;;13.13;100.00;100363.03;5039018;28;20083;-71
2023/08/08 05:10:45;;;;;;;3.85;2.47;;;;;;;13.10;100.00;100352.56;5040100;28;20037;-72
2023/08/08 05:13:13;;;;;;;3.10;2.30;;;;;;;13.16;100.00;100363.75;5031096;28;20065;-74
2023/08/08 05:15:42;;;;;;;2.92;2.45;;;;;;;13.14;100.00;100357.63;5040789;28;20516;-72
2023/08/08 05:18:11;;;;;;;4.30;2.80;;;;;;;13.13;100.00;100361.22;5041562;28;20067;-71
2023/08/08 05:20:41;;;;;;;3.15;2.40;;;;;;;13.12;100.00;100363.97;5036542;28;20034;-74
2023/08/08 05:23:08;;;;;;;5.45;2.75;;;;;;;13.18;100.00;100361.00;5033937;28;20046;-73
2023/08/08 05:25:37;;;;;;;4.45;2.70;;;;;;;13.25;100.00;100360.53;5039898;28;20041;-74
2023/08/08 05:28:06;;;;;;;5.05;2.88;;;;;;;13.26;100.00;100358.75;5039071;28;20072;-72
2023/08/08 05:30:34;;;;;;;4.55;2.83;;;;;;;13.25;100.00;100363.19;5039568;28;20456;-73
2023/08/08 05:33:02;;;;;;;4.43;2.88;;;;;;;13.26;100.00;100351.63;5035509;28;20665;-74
2023/08/08 05:35:33;;;;;;;5.00;3.30;;;;;;;13.27;100.00;100348.00;5039266;28;20041;-74
2023/08/08 05:38:03;;;;;;;4.07;3.13;;;;;;;13.35;100.00;100352.91;5047586;28;20469;-71
2023/08/08 05:40:31;;;;;;;5.13;2.65;;;;;;;13.43;100.00;100357.75;5043236;28;20045;-71
2023/08/08 05:42:59;;;;;;;6.45;3.00;;;;;;;13.46;100.00;100355.75;5047414;28;20056;-73
2023/08/08 05:45:28;;;;;;;5.70;2.88;;;;;;;13.47;100.00;100357.47;5054257;28;20107;-73
2023/08/08 05:47:56;;;;;;;5.03;3.20;;;;;;;13.52;100.00;100362.53;5050781;28;20128;-73
2023/08/08 05:50:25;;;;;;;4.55;2.78;;;;;;;13.49;100.00;100357.41;5055492;28;20057;-73
2023/08/08 05:52:53;;;;;;;4.90;3.20;;;;;;;13.55;100.00;100365.84;5052917;28;20048;-73
2023/08/08 05:55:22;;;;;;;4.25;2.85;;;;;;;13.62;100.00;100364.53;5037375;28;20478;-74
2023/08/08 05:57:50;;;;;;;4.53;2.20;;;;;;;13.65;100.00;100361.72;5036109;28;20038;-74
2023/08/08 06:00:18;;;;;;;4.70;2.30;;;;;;;13.68;100.00;100366.84;5038250;28;20135;-73
2023/08/08 06:02:47;;;;;;;4.07;2.65;;;;;;;13.74;100.00;100365.59;5032618;28;20045;-73
2023/08/08 06:05:18;;;;;;;3.25;2.28;;;;;;;13.83;100.00;100366.88;5022390;28;20136;-73
2023/08/08 06:07:46;;;;;;;3.05;2.17;;;;;;;13.81;100.00;100366.97;5024989;28;20048;-74
2023/08/08 06:10:15;;;;;;;6.10;2.05;;;;;;;13.90;100.00;100370.84;5036949;28;20045;-73
2023/08/08 06:12:45;;;;;;;6.03;2.20;;;;;;;13.86;100.00;100364.00;5035112;28;20045;-73
2023/08/08 06:15:13;;;;;;;4.35;2.20;;;;;;;13.80;100.00;100359.06;5030879;28;20107;-72
2023/08/08 06:17:48;;;;;;;4.47;2.20;;;;;;;13.88;100.00;100352.31;5032201;28;20047;-73
2023/08/08 06:20:16;;;;;;;4.45;2.00;;;;;;;14.03;100.00;100356.69;5038013;28;20045;-73
2023/08/08 06:22:45;;;;;;;6.03;1.90;;;;;;;14.25;100.00;100358.88;5031798;28;20144;-72
2023/08/08 06:25:13;;;;;;;4.72;2.45;;;;;;;14.43;100.00;100359.56;5041139;28;20048;-73
2023/08/08 06:27:41;;;;;;;3.45;2.20;;;;;;;14.66;100.00;100356.28;5038271;28;20041;-73
2023/08/08 06:30:13;;;;;;;5.10;2.22;;;;;;;14.81;100.00;100358.91;5032189;28;20041;-74
2023/08/08 06:32:41;;;;;;;4.93;1.85;;;;;;;15.06;100.00;100356.34;5026168;28;20049;-73
2023/08/08 06:35:10;;;;;;;4.28;2.10;;;;;;;15.28;100.00;100347.75;5047632;28;20041;-72
2023/08/08 06:37:40;;;;;;;3.33;2.00;;;;;;;15.57;100.00;100340.50;5045317;28;20049;-73
2023/08/08 06:40:11;;;;;;;4.22;1.90;;;;;;;16.01;100.00;100350.78;5047673;28;20048;-75
2023/08/08 06:42:39;;;;;;;;;;;;;;;16.51;100.00;100335.63;5056694;28;20055;-75
2023/08/08 06:45:10;;;;;;;3.70;1.83;;;;;;;16.83;100.00;100329.69;5059293;28;19920;-74
2023/08/08 06:47:38;;;;;;;5.75;1.90;;;;;;;17.31;100.00;100336.81;5037433;28;20042;-73
2023/08/08 06:50:08;;;;;;;2.47;1.90;;;;;;;17.56;100.00;100336.66;5036115;28;20131;-73
2023/08/08 06:52:36;;;;;;;3.88;1.77;;;;;;;17.54;100.00;100346.63;5029098;28;20041;-74
2023/08/08 06:55:05;;;;;;;5.50;1.75;;;;;;;17.66;100.00;100344.84;5035294;28;20053;-73
2023/08/08 06:57:34;;;;;;;5.25;1.60;;;;;;;17.59;100.00;100343.59;5030952;28;20044;-71
2023/08/08 07:00:05;;;;;;;2.22;1.60;;;;;;;17.78;100.00;100344.78;5036961;28;20103;-72
2023/08/08 07:02:35;;;;;;;3.38;1.80;;;;;;;18.16;100.00;100338.22;5025698;28;20049;-72
2023/08/08 07:05:07;;;;;;;3.25;1.80;;;;;;;18.52;99.27;100339.78;5035501;28;20053;-69
2023/08/08 07:07:39;;;;;;;4.05;2.00;;;;;;;18.65;97.09;100337.84;5033459;28;20063;-71
2023/08/08 07:10:12;;;;;;;5.47;1.75;;;;;;;18.76;97.66;100335.13;5042398;28;20052;-74
2023/08/08 07:12:40;;;;;;;2.50;1.63;;;;;;;18.74;97.06;100334.41;5022002;28;20048;-73
2023/08/08 07:15:10;;;;;;;4.15;1.65;;;;;;;18.82;94.93;100341.84;5023031;28;20052;-71
2023/08/08 07:17:42;;;;;;;4.90;1.80;;;;;;;19.19;90.84;100331.59;5038958;28;20052;-72
2023/08/08 07:20:13;;;;;;;2.88;1.50;;;;;;;19.19;83.19;100336.97;5035893;28;20459;-71
2023/08/08 07:22:41;;;;;;;4.28;1.65;;;;;;;18.48;89.80;100333.81;5036115;28;20060;-70
2023/08/08 07:25:12;;;;;;;2.90;1.42;;;;;;;17.94;90.36;100332.88;5051366;28;20045;-72
2023/08/08 07:27:40;;;;;;;2.55;1.40;;;;;;;18.02;98.89;100338.47;5038763;28;20069;-72
2023/08/08 07:30:09;;;;;;;3.58;1.63;;;;;;;18.51;92.95;100333.56;5049583;28;20095;-73
2023/08/08 07:32:37;;;;;;;4.97;1.40;;;;;;;18.57;87.17;100329.56;5041533;28;20042;-73
2023/08/08 07:35:08;;;;;;;2.83;1.15;;;;;;;18.80;87.75;100325.84;5052513;28;20049;-72
2023/08/08 07:37:36;;;;;;;3.95;1.30;;;;;;;18.93;82.80;100323.00;5043468;28;20054;-73
2023/08/08 07:40:14;;;;;;;3.35;1.20;;;;;;;19.06;79.77;100321.00;5050707;28;20114;-74
2023/08/08 07:42:42;;;;;;;3.28;1.42;;;;;;;19.06;81.04;100318.31;5020653;28;20796;-74
2023/08/08 07:45:10;;;;;;;4.03;1.20;;;;;;;19.26;80.14;100320.19;5045392;28;20045;-74
2023/08/08 07:47:38;;;;;;;2.88;1.48;;;;;;;19.50;74.28;100322.69;5054904;28;20099;-73
2023/08/08 07:50:09;;;;;;;4.07;1.40;;;;;;;19.76;74.59;100307.00;5047062;28;20065;-73
2023/08/08 07:52:38;;;;;;;5.15;1.10;;;;;;;19.87;72.34;100317.66;5043808;28;20045;-73
2023/08/08 07:55:06;;;;;;;4.70;1.50;;;;;;;19.69;74.15;100308.50;5029320;28;20052;-73
2023/08/08 07:57:35;;;;;;;4.68;1.80;;;;;;;19.41;74.54;100314.50;5056848;28;20647;-72
2023/08/08 08:00:11;;;;;;;4.43;1.27;;;;;;;19.21;76.25;100302.75;5037569;28;20049;-73
2023/08/08 08:02:41;;;;;;;4.57;1.20;;;;;;;19.38;75.42;100306.72;5027959;28;20063;-73
2023/08/08 08:05:11;;;;;;;2.67;1.15;;;;;;;19.73;70.40;100295.66;5030878;28;20143;-73
2023/08/08 08:07:40;;;;;;;3.17;0.88;;;;;;;20.08;67.88;100308.72;5035201;28;20069;-73
2023/08/08 08:10:12;;;;;;;4.78;1.02;;;;;;;20.37;64.61;100298.94;5038819;28;20045;-73
2023/08/08 08:12:42;;;;;;;2.85;1.13;;;;;;;20.69;61.25;100295.22;5030615;28;20046;-74
2023/08/08 08:15:11;;;;;;;0.98;0.75;;;;;;;20.24;62.63;100303.69;5039362;28;20053;-73
2023/08/08 08:17:39;;;;;;;2.72;1.00;;;;;;;20.14;63.56;100297.44;5043726;28;20445;-73
2023/08/08 08:20:12;;;;;;;3.17;1.00;;;;;;;20.38;62.21;100295.28;5034930;28;20060;-72
2023/08/08 08:22:41;;;;;;;1.80;0.95;;;;;;;20.78;59.98;100291.69;5031544;28;20491;-72
2023/08/08 08:25:09;;;;;;;4.03;1.15;;;;;;;21.13;57.34;100297.38;5039370;28;20050;-72
2023/08/08 08:27:39;;;;;;;4.57;1.20;;;;;;;20.64;55.42;100295.63;5046257;28;20053;-74
2023/08/08 08:30:09;;;;;;;4.90;1.25;;;;;;;19.94;58.99;100305.41;5028290;28;20053;-72
2023/08/08 08:32:38;;;;;;;1.75;0.73;;;;;;;20.00;58.92;100298.63;5023402;28;20494;-73
2023/08/08 08:35:07;;;;;;;2.78;0.80;;;;;;;20.14;57.81;100297.44;5033003;28;20051;-72
2023/08/08 08:37:36;;;;;;;2.30;1.00;;;;;;;20.11;58.21;100295.88;5031134;28;20056;-72
2023/08/08 08:40:05;;;;;;;3.45;1.10;;;;;;;19.86;58.13;100291.78;5040485;28;20051;-72
2023/08/08 08:42:34;;;;;;;2.90;1.05;;;;;;;19.92;59.32;100302.00;5027101;28;20049;-71
2023/08/08 08:45:05;;;;;;;2.75;1.30;;;;;;;19.88;59.21;100297.03;5035281;28;20045;-71
2023/08/08 08:47:37;;;;;;;5.28;1.10;;;;;;;19.76;60.62;100304.31;5043362;28;20041;-72
2023/08/08 08:50:07;;;;;;;2.15;1.20;;;;;;;19.93;60.59;100306.41;5036535;28;20041;-71
2023/08/08 08:52:35;;;;;;;3.40;1.00;;;;;;;19.93;58.71;100308.22;5040350;28;20700;-73
2023/08/08 08:55:06;;;;;;;2.83;1.10;;;;;;;19.99;58.70;100298.78;5028569;28;20053;-71
2023/08/08 08:57:34;;;;;;;4.72;1.40;;;;;;;20.23;59.60;100302.00;5051352;28;20057;-73
2023/08/08 09:00:03;;;;;;;3.03;1.23;;;;;;;19.99;58.68;100298.78;5030222;28;20041;-72
2023/08/08 09:02:31;;;;;;;2.67;1.00;;;;;;;20.12;60.09;100310.16;5024666;28;20075;-73
2023/08/08 09:05:01;;;;;;;4.65;1.50;;;;;;;20.17;58.22;100291.75;5036488;28;20057;-74
2023/08/08 09:07:32;;;;;;;3.28;1.20;;;;;;;20.21;59.07;100306.66;5041285;28;20500;-74
2023/08/08 09:10:00;;;;;;;5.38;1.27;;;;;;;20.08;58.41;100303.34;5039442;28;20033;-73
2023/08/08 09:12:33;;;;;;;2.67;0.90;;;;;;;19.79;57.51;100301.38;5043621;28;20531;-73
2023/08/08 09:15:04;;;;;;;7.50;1.73;;;;;;;19.45;58.44;100298.00;5032113;28;20127;-74
2023/08/08 09:17:31;;;;;;;;;;;;;;;19.65;60.36;100295.50;5042839;28;20095;-72
2023/08/08 09:20:03;;;;;;;;;;;;;;;19.92;60.09;100304.69;5035082;28;19925;-70
2023/08/08 09:22:33;;;;;;;3.15;1.38;;;;;;;20.11;60.55;100287.81;5035935;28;20029;-69
2023/08/08 09:25:03;;;;;;;3.28;1.77;;;;;;;20.13;59.18;100290.34;5037531;28;20115;-69
2023/08/08 09:27:32;;;;;;;7.82;1.20;;;;;;;20.32;59.75;100291.25;5031533;28;20049;-69
2023/08/08 09:30:02;;;;;;;4.05;1.08;;;;;;;20.32;59.86;100288.56;5042624;28;20076;-69
2023/08/08 09:32:32;;;;;;;6.13;1.77;;;;;;;20.27;58.27;100287.28;5038780;28;20068;-69
2023/08/08 09:35:00;;;;;;;4.50;1.50;;;;;;;20.16;59.22;100285.53;5033976;28;20100;-69
2023/08/08 09:37:29;;;;;;;4.60;1.42;;;;;;;20.08;60.75;100292.59;5034157;28;20040;-69
2023/08/08 09:39:57;;;;;;;2.40;0.98;;;;;;;20.13;61.79;100284.97;5033643;28;20053;-70
2023/08/08 09:42:27;;;;;;;4.60;1.30;;;;;;;20.15;59.52;100280.28;5038606;28;20056;-69
2023/08/08 09:44:57;;;;;;;2.78;1.30;;;;;;;20.19;59.63;100271.81;5036229;28;20049;-69
2023/08/08 09:47:30;;;;;;;2.22;1.70;;;;;;;20.37;59.68;100277.44;5040882;28;20532;-69
2023/08/08 09:50:04;;;;;;;2.95;1.10;;;;;;;20.47;60.28;100261.31;5031490;28;20041;-70
2023/08/08 09:52:35;;;;;;;2.35;1.13;;;;;;;20.55;59.55;100278.47;5037865;28;20056;-69
2023/08/08 09:55:04;;;;;;;2.75;1.27;;;;;;;20.49;58.50;100273.63;5034770;28;20148;-69
2023/08/08 09:57:33;;;;;;;4.03;0.98;;;;;;;20.26;59.81;100262.25;5035660;28;20106;-69
2023/08/08 10:00:07;;;;;;;2.45;1.38;;;;;;;20.15;61.49;100273.09;5016506;28;20121;-70
2023/08/08 10:02:37;;;;;;;2.45;1.17;;;;;;;20.44;60.76;100262.47;5032659;28;20155;-71
2023/08/08 10:05:07;;;;;;;3.58;1.20;;;;;;;20.61;59.08;100269.00;5026513;28;20128;-70
2023/08/08 10:07:36;;;;;;;3.03;1.00;;;;;;;20.65;58.86;100263.19;5038751;28;20049;-70
2023/08/08 10:10:04;;;;;;;6.13;1.40;;;;;;;20.75;58.73;100271.28;5062509;28;20033;-69
2023/08/08 10:12:32;;;;;;;5.63;1.30;;;;;;;21.00;57.58;100273.41;5058239;28;20056;-69
2023/08/08 10:15:01;;;;;;;5.80;1.60;;;;;;;20.73;56.49;100262.50;5052986;28;20058;-69
2023/08/08 10:17:39;;;;;;;2.55;1.40;;;;;;;20.72;56.33;100268.03;5055345;28;20070;-69
2023/08/08 10:20:11;;;;;;;3.60;1.48;;;;;;;20.35;57.50;100268.63;5048414;28;20170;-69
2023/08/08 10:22:46;;;;;;;3.63;1.38;;;;;;;20.09;58.81;100264.72;5036614;28;20057;-70
2023/08/08 10:25:23;;;;;;;2.95;1.48;;;;;;;20.17;57.90;100263.03;5038286;28;20059;-69
2023/08/08 10:28:03;;;;;;;3.08;1.40;;;;;;;20.51;57.21;100274.34;5036500;28;20041;-69
2023/08/08 10:30:54;;;;;;;3.47;1.37;;;;;;;20.67;55.48;100261.22;5031483;28;20747;-69
2023/08/08 10:33:24;;;;;;;6.40;1.48;;;;;;;20.72;51.63;100271.56;5028415;28;20472;-69
2023/08/08 10:35:58;;;;;;;2.55;1.27;;;;;;;20.82;51.12;100268.88;5032424;28;20103;-69
2023/08/08 10:38:27;;;;;;;6.60;1.40;;;;;;;21.02;49.55;100267.91;5040468;28;20048;-69
2023/08/08 10:41:01;;;;;;;5.38;1.58;;;;;;;21.00;50.03;100275.25;5029874;28;20136;-70
2023/08/08 10:43:30;;;;;;;9.60;1.65;;;;;;;21.02;48.24;100274.13;5022843;28;20540;-70
2023/08/08 10:46:00;;;;;;;2.55;1.20;;;;;;;20.88;49.00;100271.00;5024570;28;20556;-69
2023/08/08 10:48:52;;;;;;;3.95;1.20;;;;;;;20.78;50.40;100267.47;5033716;28;20040;-70
2023/08/08 10:51:21;;;;;;;2.40;1.13;;;;;;;20.62;51.06;100265.31;5036933;28;20049;-68
2023/08/08 10:53:53;;;;;;;3.45;1.38;;;;;;;20.75;50.99;100275.81;5032291;28;20049;-70
2023/08/08 10:56:23;;;;;;;3.28;1.60;;;;;;;20.49;52.40;100270.94;5029869;28;20041;-70
2023/08/08 10:58:51;;;;;;;;;;;;;;;20.63;53.47;100273.25;5023906;28;20047;-71
2023/08/08 11:01:22;;;;;;;3.50;1.30;;;;;;;20.77;52.31;100273.84;5046751;28;19928;-71
2023/08/08 11:03:52;;;;;;;2.35;1.00;;;;;;;20.87;52.85;100272.84;5043216;28;20148;-71
2023/08/08 11:06:21;;;;;;;3.35;1.30;;;;;;;20.91;52.17;100274.28;5045814;28;20048;-71
2023/08/08 11:08:54;;;;;;;4.03;1.42;;;;;;;20.81;51.46;100265.34;5042038;28;20053;-69
2023/08/08 11:11:22;;;;;;;2.65;1.50;;;;;;;20.95;51.24;100269.44;5044539;28;20038;-72
2023/08/08 11:13:52;;;;;;;6.05;1.60;;;;;;;21.01;50.98;100263.50;5029820;28;20476;-71
2023/08/08 11:16:20;;;;;;;4.80;1.60;;;;;;;21.27;49.36;100263.78;5047468;28;20052;-71
2023/08/08 11:18:48;;;;;;;4.43;1.40;;;;;;;21.53;48.94;100264.91;5023837;28;20082;-71
2023/08/08 11:21:17;;;;;;;5.60;1.40;;;;;;;21.54;48.19;100268.44;5036805;28;20041;-71
2023/08/08 11:23:47;;;;;;;3.28;1.00;;;;;;;21.41;46.83;100270.59;5032576;28;20132;-71
2023/08/08 11:26:18;;;;;;;3.42;1.33;;;;;;;21.14;47.45;100265.91;5032125;28;20571;-71
2023/08/08 11:28:50;;;;;;;2.75;1.40;;;;;;;21.07;47.31;100271.03;5036474;28;20069;-71
2023/08/08 11:31:19;;;;;;;3.42;1.40;;;;;;;20.94;46.87;100270.44;5040324;28;20041;-71
2023/08/08 11:33:49;;;;;;;3.35;1.33;;;;;;;20.78;46.37;100264.78;5039365;28;20055;-75